createdAt,value
2023-02-25T00:02:35.426Z,89.8
2023-02-25T00:14:35.421Z,90.0
2023-02-25T00:26:35.425Z,90.0
2023-02-25T00:38:35.321Z,88.5
2023-02-25T00:50:35.390Z,89.0
2023-02-25T01:02:35.628Z,89.5
2023-02-25T01:14:35.372Z,89.1
2023-02-25T01:26:35.395Z,88.8
2023-02-25T01:38:35.433Z,87.6
2023-02-25T01:50:35.343Z,88.7
2023-02-25T02:02:35.877Z,88.5
2023-02-25T02:14:35.339Z,88.4
2023-02-25T02:26:35.423Z,89.1
2023-02-25T02:38:35.372Z,89.1
2023-02-25T02:50:35.330Z,89.0
2023-02-25T03:02:35.355Z,88.4
2023-02-25T03:14:35.355Z,89.1
2023-02-25T03:26:35.349Z,88.5
2023-02-25T03:38:35.327Z,88.9
2023-02-25T03:50:35.433Z,90.0
2023-02-25T04:02:35.426Z,90.1
2023-02-25T04:14:35.379Z,90.7
2023-02-25T04:26:35.381Z,91.3
2023-02-25T04:38:35.411Z,92.3
2023-02-25T04:50:35.341Z,92.1
2023-02-25T05:02:35.398Z,92.1
2023-02-25T05:14:35.416Z,92.3
2023-02-25T05:26:35.351Z,93.3
2023-02-25T05:38:35.325Z,94.3
2023-02-25T05:50:35.405Z,95.0
2023-02-25T06:02:35.336Z,94.4
2023-02-25T06:14:35.342Z,94.3
2023-02-25T06:26:35.402Z,94.5
2023-02-25T06:38:35.391Z,94.5
2023-02-25T06:50:35.413Z,94.4
2023-02-25T07:02:35.345Z,94.5
2023-02-25T07:14:35.363Z,94.3
2023-02-25T07:26:35.406Z,93.8
2023-02-25T07:38:35.320Z,93.3
2023-02-25T07:50:35.371Z,93.3
2023-02-25T08:02:35.357Z,93.2
2023-02-25T08:14:35.335Z,93.1
2023-02-25T08:26:35.337Z,92.5
2023-02-25T08:38:35.387Z,90.3
2023-02-25T08:50:35.328Z,89.9
2023-02-25T09:02:35.396Z,90.1
2023-02-25T09:14:35.435Z,90.4
2023-02-25T09:26:35.448Z,88.4
2023-02-25T09:38:35.406Z,86.2
2023-02-25T09:50:35.330Z,85.3
2023-02-25T10:02:35.631Z,82.6
2023-02-25T10:14:35.332Z,81.7
2023-02-25T10:26:35.402Z,86.4
2023-02-25T10:38:35.401Z,90.9
2023-02-25T10:50:45.607Z,92.6
2023-02-25T11:02:35.403Z,92.2
2023-02-25T11:14:35.347Z,92.2
2023-02-25T11:26:35.335Z,91.2
2023-02-25T11:38:35.421Z,87.7
2023-02-25T11:50:35.390Z,84.8
2023-02-25T12:02:35.390Z,82.4
2023-02-25T12:14:35.330Z,90.3
2023-02-25T12:26:35.435Z,95.6
2023-02-25T12:38:35.451Z,94.0
2023-02-25T12:50:35.407Z,91.7
2023-02-25T13:02:35.423Z,86.0
2023-02-25T13:14:35.364Z,83.4
2023-02-25T13:26:37.554Z,80.2
2023-02-25T13:38:35.335Z,80.5
2023-02-25T13:50:35.396Z,79.1
2023-02-25T14:02:35.381Z,79.3
2023-02-25T14:14:35.339Z,78.1
2023-02-25T14:26:35.416Z,74.8
2023-02-25T14:38:35.387Z,74.1
2023-02-25T14:50:35.384Z,73.9
2023-02-25T15:02:35.385Z,75.9
2023-02-25T15:14:35.327Z,70.1
2023-02-25T15:26:35.938Z,66.1
2023-02-25T15:38:35.331Z,58.4
2023-02-25T15:50:35.332Z,54.1
2023-02-25T16:02:35.333Z,55.2
2023-02-25T16:14:35.343Z,53.4
2023-02-25T16:26:35.433Z,53.7
2023-02-25T16:38:37.803Z,56.4
2023-02-25T16:50:35.376Z,57.5
2023-02-25T17:02:35.437Z,59.5
2023-02-25T17:14:35.327Z,59.7
2023-02-25T17:26:36.033Z,59.9
2023-02-25T17:38:36.603Z,61.2
2023-02-25T17:50:35.424Z,61.3
2023-02-25T18:02:35.429Z,59.2
2023-02-25T18:14:35.403Z,59.5
2023-02-25T18:26:35.431Z,60.3
2023-02-25T18:38:35.321Z,62.1
2023-02-25T18:50:35.359Z,66.9
2023-02-25T19:02:35.441Z,68.5
2023-02-25T19:14:35.433Z,67.9
2023-02-25T19:26:35.378Z,66.0
2023-02-25T19:38:35.338Z,66.8
2023-02-25T19:50:35.338Z,64.6
2023-02-25T20:02:35.416Z,65.7
2023-02-25T20:14:35.430Z,65.0
2023-02-25T20:26:35.319Z,66.1
2023-02-25T20:38:35.420Z,66.3
2023-02-25T20:50:35.377Z,66.7
2023-02-25T21:02:35.347Z,68.2
2023-02-25T21:14:35.449Z,68.2
2023-02-25T21:26:35.322Z,68.6
2023-02-25T21:38:35.417Z,68.8
2023-02-25T21:50:35.327Z,70.1
2023-02-25T22:02:35.334Z,71.3
2023-02-25T22:14:35.409Z,71.8
2023-02-25T22:26:35.411Z,71.4
2023-02-25T22:38:35.346Z,70.3
2023-02-25T22:50:35.385Z,71.4
2023-02-25T23:02:35.428Z,72.5
2023-02-25T23:14:35.333Z,72.2
2023-02-25T23:26:35.376Z,72.5
2023-02-25T23:38:35.354Z,73.1
2023-02-25T23:50:35.331Z,74.9
